Time;durP1;ratioP1;P1;durP2;ratioP2;P2;SDS_P1;SDS_P2;PMS_P1;PMS_P2;Temp;Humidity;BMP_temperature;BMP_pressure;BME280_temperature;BME280_humidity;BME280_pressure;Samples;Min_cycle;Max_cycle;Signal;HPM_P1;HPM_P2
2023/05/23 00:01:02;;;;;;;8.13;3.58;;;;;;;;;;5071455;28;20361;-70
2023/05/23 00:03:30;;;;;;;11.90;3.65;;;;;;;;;;5060200;28;20037;-70
2023/05/23 00:05:58;;;;;;;10.30;3.75;;;;;;;;;;5064005;28;20317;-70
2023/05/23 00:08:26;;;;;;;15.02;4.28;;;;;;;;;;5066659;28;20185;-70
2023/05/23 00:10:53;;;;;;;10.68;4.10;;;;;;;;;;5068406;28;20063;-70
2023/05/23 00:13:20;;;;;;;9.88;3.90;;;;;;;;;;5064639;28;20045;-70
2023/05/23 00:15:47;;;;;;;9.40;3.53;;;;;;;;;;5069527;28;20426;-70
2023/05/23 00:18:15;;;;;;;14.77;4.40;;;;;;;;;;5067777;28;20174;-70
2023/05/23 00:20:43;;;;;;;10.10;4.15;;;;;;;;;;5067926;28;20476;-70
2023/05/23 00:23:17;;;;;;;12.70;4.30;;;;;;;;;;5069317;28;20055;-70
2023/05/23 00:25:47;;;;;;;11.65;4.00;;;;;;;;;;5068573;28;20047;-70
2023/05/23 00:28:15;;;;;;;13.55;4.25;;;;;;;;;;5065680;28;20041;-70
2023/05/23 00:30:43;;;;;;;10.88;3.42;;;;;;;;;;5062328;28;20101;-70
2023/05/23 00:33:13;;;;;;;10.60;3.67;;;;;;;;;;5059548;28;20049;-70
2023/05/23 00:35:40;;;;;;;9.77;4.35;;;;;;;;;;5069282;28;20516;-70
2023/05/23 00:38:07;;;;;;;9.90;3.55;;;;;;;;;;5068941;28;20045;-70
2023/05/23 00:40:36;;;;;;;11.88;3.90;;;;;;;;;;5069425;28;20058;-70
2023/05/23 00:43:03;;;;;;;11.32;3.78;;;;;;;;;;5067974;28;20052;-70
2023/05/23 00:45:31;;;;;;;12.05;4.00;;;;;;;;;;5064320;28;20076;-70
2023/05/23 00:47:59;;;;;;;6.70;3.38;;;;;;;;;;5063928;28;20052;-70
2023/05/23 00:50:28;;;;;;;10.77;3.55;;;;;;;;;;5078598;28;20496;-70
2023/05/23 00:52:55;;;;;;;12.90;4.18;;;;;;;;;;5070211;28;20076;-70
2023/05/23 00:55:23;;;;;;;10.07;3.70;;;;;;;;;;5065317;28;20098;-70
2023/05/23 00:57:54;;;;;;;9.45;3.72;;;;;;;;;;5068891;28;20283;-70
2023/05/23 01:00:22;;;;;;;6.57;3.35;;;;;;;;;;5066815;28;20126;-70
2023/05/23 01:02:51;;;;;;;9.63;3.08;;;;;;;;;;5063303;28;20067;-70
2023/05/23 01:05:18;;;;;;;10.32;3.67;;;;;;;;;;5062167;28;20045;-70
2023/05/23 01:07:46;;;;;;;10.32;3.13;;;;;;;;;;5065187;28;20087;-70
2023/05/23 01:10:14;;;;;;;10.82;3.72;;;;;;;;;;5072954;28;20076;-70
2023/05/23 01:12:46;;;;;;;12.48;4.25;;;;;;;;;;5062842;28;20053;-70
2023/05/23 01:15:16;;;;;;;8.05;3.65;;;;;;;;;;5059978;28;21631;-70
2023/05/23 01:17:47;;;;;;;9.02;3.60;;;;;;;;;;5067107;28;20079;-70
2023/05/23 01:20:17;;;;;;;11.35;3.33;;;;;;;;;;5056215;28;20041;-70
2023/05/23 01:22:55;;;;;;;13.52;3.55;;;;;;;;;;5065974;28;20045;-70
2023/05/23 01:25:28;;;;;;;10.00;3.33;;;;;;;;;;5063881;28;20057;-70
2023/05/23 01:27:55;;;;;;;;;;;;;;;;;;5065555;28;20423;-70
2023/05/23 01:30:25;;;;;;;11.02;3.28;;;;;;;;;;5062473;28;20011;-70
2023/05/23 01:32:54;;;;;;;6.70;2.75;;;;;;;;;;5069256;28;20072;-70
2023/05/23 01:35:25;;;;;;;6.90;3.00;;;;;;;;;;5067924;28;20454;-70
2023/05/23 01:37:53;;;;;;;12.05;2.97;;;;;;;;;;5068691;28;20507;-70
2023/05/23 01:40:20;;;;;;;9.65;2.88;;;;;;;;;;5069294;28;20389;-70
2023/05/23 01:42:48;;;;;;;7.03;2.53;;;;;;;;;;5067278;28;20052;-70
2023/05/23 01:45:16;;;;;;;8.88;2.90;;;;;;;;;;5066617;28;20048;-70
2023/05/23 01:47:45;;;;;;;9.20;3.20;;;;;;;;;;5067438;28;20102;-71
2023/05/23 01:50:12;;;;;;;13.50;3.03;;;;;;;;;;5061894;28;21810;-70
2023/05/23 01:52:40;;;;;;;10.35;3.38;;;;;;;;;;5070937;28;20498;-70
2023/05/23 01:55:10;;;;;;;13.38;3.78;;;;;;;;;;5060900;28;20062;-70
2023/05/23 01:57:38;;;;;;;9.98;3.08;;;;;;;;;;5065283;28;20143;-70
2023/05/23 02:00:07;;;;;;;8.68;2.78;;;;;;;;;;5064769;28;20511;-70
2023/05/23 02:02:34;;;;;;;13.98;3.13;;;;;;;;;;5062813;28;20049;-70
2023/05/23 02:05:03;;;;;;;11.25;3.08;;;;;;;;;;5064599;28;20127;-70
2023/05/23 02:07:30;;;;;;;9.05;2.65;;;;;;;;;;5055808;28;20048;-70
2023/05/23 02:09:57;;;;;;;14.25;3.03;;;;;;;;;;5064811;28;20385;-70
2023/05/23 02:12:24;;;;;;;10.32;2.88;;;;;;;;;;5070557;28;20041;-70
2023/05/23 02:14:52;;;;;;;11.57;3.17;;;;;;;;;;5067858;28;20495;-70
2023/05/23 02:17:20;;;;;;;11.50;2.47;;;;;;;;;;5061914;28;20119;-70
2023/05/23 02:19:48;;;;;;;10.25;2.97;;;;;;;;;;5070102;28;20048;-70
2023/05/23 02:22:17;;;;;;;9.95;2.72;;;;;;;;;;5072018;28;20053;-70
2023/05/23 02:24:44;;;;;;;7.05;2.13;;;;;;;;;;5067246;28;20041;-70
2023/05/23 02:27:11;;;;;;;9.20;2.60;;;;;;;;;;5071807;28;20048;-71
2023/05/23 02:29:38;;;;;;;7.35;2.58;;;;;;;;;;5069477;28;20057;-70
2023/05/23 02:32:06;;;;;;;8.65;2.75;;;;;;;;;;5071778;28;20068;-70
2023/05/23 02:34:33;;;;;;;6.95;2.53;;;;;;;;;;5062849;28;20484;-70
2023/05/23 02:37:01;;;;;;;10.05;2.33;;;;;;;;;;5072481;28;20056;-70
2023/05/23 02:39:29;;;;;;;8.63;2.15;;;;;;;;;;5073022;28;20142;-70
2023/05/23 02:41:56;;;;;;;9.02;2.35;;;;;;;;;;5067201;28;20664;-70
2023/05/23 02:44:24;;;;;;;10.48;2.10;;;;;;;;;;5069271;28;20080;-69
2023/05/23 02:46:51;;;;;;;13.93;2.33;;;;;;;;;;5069494;28;20145;-70
2023/05/23 02:49:18;;;;;;;7.03;1.70;;;;;;;;;;5070658;28;20393;-70
2023/05/23 02:51:46;;;;;;;8.25;2.17;;;;;;;;;;5065558;28;20492;-70
2023/05/23 02:54:13;;;;;;;7.18;1.50;;;;;;;;;;5069068;28;20056;-70
2023/05/23 02:56:41;;;;;;;5.15;1.38;;;;;;;;;;5075758;28;20044;-70
2023/05/23 02:59:09;;;;;;;9.45;1.70;;;;;;;;;;5060707;28;20058;-70
2023/05/23 03:01:36;;;;;;;7.50;1.67;;;;;;;;;;5070429;28;20451;-70
2023/05/23 03:04:03;;;;;;;3.72;1.13;;;;;;;;;;5066212;28;20056;-70
2023/05/23 03:06:32;;;;;;;6.07;1.42;;;;;;;;;;5066509;28;20071;-69
2023/05/23 03:09:00;;;;;;;6.35;1.60;;;;;;;;;;5068566;28;20052;-70
2023/05/23 03:11:28;;;;;;;6.75;1.88;;;;;;;;;;5064625;28;20059;-70
2023/05/23 03:13:57;;;;;;;5.55;1.35;;;;;;;;;;5072197;28;20606;-70
2023/05/23 03:16:24;;;;;;;5.90;1.60;;;;;;;;;;5068959;28;20522;-71
2023/05/23 03:18:51;;;;;;;7.15;2.05;;;;;;;;;;5065746;28;20053;-70
2023/05/23 03:21:19;;;;;;;9.00;1.95;;;;;;;;;;5070776;28;20050;-70
2023/05/23 03:23:46;;;;;;;9.60;2.30;;;;;;;;;;5064033;28;20525;-70
2023/05/23 03:26:13;;;;;;;7.57;1.75;;;;;;;;;;5069779;28;20044;-70
2023/05/23 03:28:40;;;;;;;5.05;1.35;;;;;;;;;;5070032;28;20053;-70
2023/05/23 03:31:09;;;;;;;6.00;1.70;;;;;;;;;;5067555;28;20440;-70
2023/05/23 03:33:36;;;;;;;9.73;1.98;;;;;;;;;;5064712;28;20132;-70
2023/05/23 03:36:03;;;;;;;5.97;1.63;;;;;;;;;;5070035;28;20503;-70
2023/05/23 03:38:31;;;;;;;5.90;1.48;;;;;;;;;;5068039;28;20057;-70
2023/05/23 03:40:58;;;;;;;8.48;1.90;;;;;;;;;;5070536;28;20055;-70
2023/05/23 03:43:25;;;;;;;5.88;1.52;;;;;;;;;;5064647;28;20055;-70
2023/05/23 03:45:52;;;;;;;3.72;1.33;;;;;;;;;;5067251;28;20491;-70
2023/05/23 03:48:21;;;;;;;8.07;2.03;;;;;;;;;;5058428;28;20057;-70
2023/05/23 03:50:48;;;;;;;5.03;1.88;;;;;;;;;;5065027;28;20048;-70
2023/05/23 03:53:15;;;;;;;4.78;1.98;;;;;;;;;;5067177;28;20051;-70
2023/05/23 03:55:43;;;;;;;8.02;2.35;;;;;;;;;;5059203;28;20067;-70
2023/05/23 03:58:10;;;;;;;7.45;2.33;;;;;;;;;;5064423;28;20053;-70
2023/05/23 04:00:38;;;;;;;4.20;1.63;;;;;;;;;;5058721;28;20045;-70
2023/05/23 04:03:05;;;;;;;6.25;1.63;;;;;;;;;;5066073;28;20053;-70
2023/05/23 04:05:34;;;;;;;5.63;2.05;;;;;;;;;;5063538;28;20109;-70
2023/05/23 04:08:01;;;;;;;6.95;2.28;;;;;;;;;;5070930;28;20385;-70
2023/05/23 04:10:28;;;;;;;6.50;2.00;;;;;;;;;;5062628;28;20055;-70
2023/05/23 04:12:56;;;;;;;6.40;2.17;;;;;;;;;;5067824;28;20479;-70
2023/05/23 04:15:23;;;;;;;5.65;2.08;;;;;;;;;;5067843;28;20117;-70
2023/05/23 04:17:51;;;;;;;5.55;1.73;;;;;;;;;;5070559;28;20049;-69
2023/05/23 04:20:18;;;;;;;8.73;2.30;;;;;;;;;;5065417;28;20040;-70
2023/05/23 04:22:47;;;;;;;7.57;2.03;;;;;;;;;;5069534;28;20395;-70
2023/05/23 04:25:17;;;;;;;5.20;2.00;;;;;;;;;;5065400;28;20044;-70
2023/05/23 04:27:46;;;;;;;9.75;2.20;;;;;;;;;;5070245;28;20131;-70
2023/05/23 04:30:15;;;;;;;6.30;2.35;;;;;;;;;;5069776;28;20048;-70
2023/05/23 04:32:42;;;;;;;10.15;2.33;;;;;;;;;;5070544;28;20090;-70
2023/05/23 04:35:10;;;;;;;10.75;2.65;;;;;;;;;;5062507;28;20040;-70
2023/05/23 04:37:38;;;;;;;7.72;2.30;;;;;;;;;;5069851;28;20048;-70
2023/05/23 04:40:07;;;;;;;7.18;2.70;;;;;;;;;;5074223;28;20040;-70
2023/05/23 04:42:35;;;;;;;6.35;2.05;;;;;;;;;;5070899;28;20083;-70
2023/05/23 04:45:02;;;;;;;8.30;2.50;;;;;;;;;;5069461;28;20052;-70
2023/05/23 04:47:33;;;;;;;7.03;2.40;;;;;;;;;;5059646;28;20044;-70
2023/05/23 04:50:01;;;;;;;8.50;1.90;;;;;;;;;;5070078;28;20049;-70
2023/05/23 04:52:32;;;;;;;4.90;1.40;;;;;;;;;;5066874;28;20407;-70
2023/05/23 04:54:59;;;;;;;5.10;1.50;;;;;;;;;;5066921;28;20412;-70
2023/05/23 04:57:27;;;;;;;6.03;1.60;;;;;;;;;;5067445;28;20036;-70
2023/05/23 04:59:55;;;;;;;6.22;1.60;;;;;;;;;;5069512;28;20123;-70
2023/05/23 05:02:23;;;;;;;6.47;1.30;;;;;;;;;;5066151;28;20052;-70
2023/05/23 05:04:50;;;;;;;6.25;1.55;;;;;;;;;;5066686;28;20566;-70
2023/05/23 05:07:17;;;;;;;7.75;1.85;;;;;;;;;;5067614;28;20496;-70
2023/05/23 05:09:45;;;;;;;5.55;1.48;;;;;;;;;;5068527;28;20381;-70
2023/05/23 05:12:12;;;;;;;9.63;1.48;;;;;;;;;;5069070;28;20060;-70
2023/05/23 05:14:40;;;;;;;6.82;1.55;;;;;;;;;;5065794;28;20048;-70
2023/05/23 05:17:08;;;;;;;6.72;1.50;;;;;;;;;;5062081;28;20050;-70
2023/05/23 05:19:35;;;;;;;8.45;1.65;;;;;;;;;;5063027;28;20091;-70
2023/05/23 05:22:02;;;;;;;8.60;1.42;;;;;;;;;;5065474;28;20339;-69
2023/05/23 05:24:30;;;;;;;9.27;1.88;;;;;;;;;;5068728;28;20051;-70
2023/05/23 05:26:57;;;;;;;13.00;2.08;;;;;;;;;;5062208;28;20040;-70
2023/05/23 05:29:25;;;;;;;11.95;1.85;;;;;;;;;;5065062;28;20048;-70
2023/05/23 05:31:54;;;;;;;10.45;1.65;;;;;;;;;;5067929;28;20054;-69
2023/05/23 05:34:21;;;;;;;9.63;1.83;;;;;;;;;;5069918;28;20574;-69
2023/05/23 05:36:48;;;;;;;9.80;1.90;;;;;;;;;;5060252;28;20049;-69
2023/05/23 05:39:16;;;;;;;9.57;1.75;;;;;;;;;;5069136;28;20442;-70
2023/05/23 05:41:43;;;;;;;6.38;1.63;;;;;;;;;;5066661;28;20173;-70
2023/05/23 05:44:11;;;;;;;4.30;1.13;;;;;;;;;;5066348;28;20506;-70
2023/05/23 05:46:38;;;;;;;9.20;1.35;;;;;;;;;;5062031;28;20125;-69
2023/05/23 05:49:06;;;;;;;12.32;1.90;;;;;;;;;;5062040;28;20051;-70
2023/05/23 05:51:34;;;;;;;10.02;1.85;;;;;;;;;;5068031;28;20040;-71
2023/05/23 05:54:01;;;;;;;9.90;1.27;;;;;;;;;;5063479;28;20123;-71
2023/05/23 05:56:28;;;;;;;6.00;1.58;;;;;;;;;;5058079;28;20045;-71
2023/05/23 05:58:55;;;;;;;9.40;1.80;;;;;;;;;;5065027;28;20049;-71
2023/05/23 06:01:24;;;;;;;4.75;1.20;;;;;;;;;;5061706;28;20049;-71
2023/05/23 06:03:51;;;;;;;4.63;1.42;;;;;;;;;;5063369;28;20057;-71
2023/05/23 06:06:20;;;;;;;7.40;1.63;;;;;;;;;;5059799;28;20542;-70
2023/05/23 06:08:47;;;;;;;5.47;1.67;;;;;;;;;;5066133;28;20489;-70
2023/05/23 06:11:15;;;;;;;8.07;1.55;;;;;;;;;;5065557;28;20048;-71
2023/05/23 06:13:42;;;;;;;7.30;1.40;;;;;;;;;;5060725;28;20078;-71
2023/05/23 06:16:09;;;;;;;7.15;1.50;;;;;;;;;;5068443;28;20056;-71
2023/05/23 06:18:36;;;;;;;7.55;1.45;;;;;;;;;;5060010;28;20048;-70
2023/05/23 06:21:04;;;;;;;6.90;1.67;;;;;;;;;;5063055;28;20408;-70
2023/05/23 06:23:33;;;;;;;8.80;1.60;;;;;;;;;;5060992;28;20049;-71
2023/05/23 06:26:00;;;;;;;9.10;1.33;;;;;;;;;;5069918;28;20045;-71
2023/05/23 06:28:27;;;;;;;7.85;1.52;;;;;;;;;;5066407;28;20078;-71
2023/05/23 06:30:54;;;;;;;5.32;1.40;;;;;;;;;;5069900;28;20081;-71
2023/05/23 06:33:22;;;;;;;6.40;1.20;;;;;;;;;;5062941;28;20044;-71
2023/05/23 06:35:51;;;;;;;11.60;1.63;;;;;;;;;;5068313;28;20544;-69
2023/05/23 06:38:18;;;;;;;8.65;1.20;;;;;;;;;;5059170;28;20052;-70
2023/05/23 06:40:47;;;;;;;6.60;1.40;;;;;;;;;;5059436;28;20492;-70
2023/05/23 06:43:15;;;;;;;6.10;1.65;;;;;;;;;;5066194;28;20410;-70
2023/05/23 06:45:42;;;;;;;5.18;1.08;;;;;;;;;;5063930;28;20074;-69
2023/05/23 06:48:10;;;;;;;9.05;1.92;;;;;;;;;;5063978;28;20056;-71
2023/05/23 06:50:37;;;;;;;6.70;1.45;;;;;;;;;;5064730;28;20062;-69
2023/05/23 06:53:05;;;;;;;7.68;1.33;;;;;;;;;;5063027;28;20044;-69
2023/05/23 06:55:32;;;;;;;7.22;1.50;;;;;;;;;;5066142;28;20072;-70
2023/05/23 06:58:02;;;;;;;8.63;1.35;;;;;;;;;;5067006;28;20911;-70
2023/05/23 07:00:30;;;;;;;10.18;1.58;;;;;;;;;;5065151;28;20053;-69
2023/05/23 07:02:59;;;;;;;6.22;1.05;;;;;;;;;;5067314;28;20092;-70
2023/05/23 07:05:27;;;;;;;7.40;1.17;;;;;;;;;;5070261;28;20041;-70
2023/05/23 07:07:55;;;;;;;11.10;1.88;;;;;;;;;;5068020;28;20045;-70
2023/05/23 07:10:22;;;;;;;6.53;1.48;;;;;;;;;;5062985;28;20488;-70
2023/05/23 07:12:49;;;;;;;7.38;1.60;;;;;;;;;;5069664;28;20052;-70
2023/05/23 07:15:18;;;;;;;7.95;1.60;;;;;;;;;;5064097;28;20045;-69
2023/05/23 07:17:46;;;;;;;10.98;1.83;;;;;;;;;;5069062;28;20143;-70
2023/05/23 07:20:13;;;;;;;11.20;1.83;;;;;;;;;;5069001;28;20040;-70
2023/05/23 07:22:40;;;;;;;8.65;1.52;;;;;;;;;;5064035;28;20059;-70
2023/05/23 07:25:08;;;;;;;4.85;1.20;;;;;;;;;;5068328;28;20098;-70
2023/05/23 07:27:35;;;;;;;4.95;1.25;;;;;;;;;;5071986;28;20049;-70
2023/05/23 07:30:03;;;;;;;5.47;1.50;;;;;;;;;;5067778;28;20040;-70
2023/05/23 07:32:31;;;;;;;8.40;1.27;;;;;;;;;;5071135;28;20087;-69
2023/05/23 07:34:59;;;;;;;7.40;1.65;;;;;;;;;;5069291;28;20531;-69
2023/05/23 07:37:26;;;;;;;6.88;2.15;;;;;;;;;;5069988;28;20051;-69
2023/05/23 07:39:54;;;;;;;11.05;1.55;;;;;;;;;;5068581;28;20049;-68
2023/05/23 07:42:21;;;;;;;8.70;1.58;;;;;;;;;;5067855;28;20135;-69
2023/05/23 07:44:48;;;;;;;7.80;1.27;;;;;;;;;;5068171;28;20581;-69
2023/05/23 07:47:15;;;;;;;4.85;1.17;;;;;;;;;;5070006;28;20049;-70
2023/05/23 07:49:44;;;;;;;7.05;1.25;;;;;;;;;;5068835;28;20052;-70
2023/05/23 07:52:11;;;;;;;10.63;2.72;;;;;;;;;;5070804;28;20114;-69
2023/05/23 07:54:39;;;;;;;6.88;1.70;;;;;;;;;;5068504;28;20047;-70
2023/05/23 07:57:07;;;;;;;9.25;1.63;;;;;;;;;;5066718;28;20044;-69
2023/05/23 07:59:35;;;;;;;6.25;1.42;;;;;;;;;;5069603;28;20472;-70
2023/05/23 08:02:02;;;;;;;7.32;1.50;;;;;;;;;;5069721;28;20052;-69
2023/05/23 08:04:30;;;;;;;6.82;1.40;;;;;;;;;;5069904;28;20053;-69
2023/05/23 08:06:59;;;;;;;6.70;1.52;;;;;;;;;;5063962;28;20059;-70
2023/05/23 08:09:26;;;;;;;7.18;1.38;;;;;;;;;;5065254;28;20048;-69
2023/05/23 08:11:53;;;;;;;5.93;1.33;;;;;;;;;;5069866;28;20120;-70
2023/05/23 08:14:21;;;;;;;5.15;1.38;;;;;;;;;;5073665;28;20051;-70
2023/05/23 08:16:48;;;;;;;7.03;1.48;;;;;;;;;;5062963;28;20048;-70
2023/05/23 08:19:16;;;;;;;8.00;1.67;;;;;;;;;;5066402;28;20087;-69
2023/05/23 08:21:43;;;;;;;7.28;1.50;;;;;;;;;;5062560;28;20619;-70
2023/05/23 08:24:12;;;;;;;5.40;1.70;;;;;;;;;;5069469;28;20036;-69
2023/05/23 08:26:39;;;;;;;12.77;1.40;;;;;;;;;;5068554;28;20132;-71
2023/05/23 08:29:08;;;;;;;8.30;1.83;;;;;;;;;;5063754;28;20048;-69
2023/05/23 08:31:36;;;;;;;9.18;1.58;;;;;;;;;;5069635;28;20068;-70
2023/05/23 08:34:04;;;;;;;12.27;1.52;;;;;;;;;;5067350;28;20056;-70
2023/05/23 08:36:33;;;;;;;11.40;1.85;;;;;;;;;;5067412;28;20139;-69
2023/05/23 08:39:00;;;;;;;4.25;1.02;;;;;;;;;;5061574;28;20045;-71
2023/05/23 08:41:30;;;;;;;4.72;1.23;;;;;;;;;;5061757;28;20052;-70
2023/05/23 08:43:57;;;;;;;5.70;1.30;;;;;;;;;;5064205;28;20044;-71
2023/05/23 08:46:25;;;;;;;8.05;1.67;;;;;;;;;;5062590;28;20036;-72
2023/05/23 08:48:53;;;;;;;4.88;1.55;;;;;;;;;;5064320;28;20057;-65
2023/05/23 08:51:22;;;;;;;7.55;1.50;;;;;;;;;;5065655;28;20431;-66
2023/05/23 08:53:52;;;;;;;8.32;1.42;;;;;;;;;;5063778;28;20048;-66
2023/05/23 08:56:20;;;;;;;7.45;1.17;;;;;;;;;;5066314;28;20040;-67
2023/05/23 08:58:49;;;;;;;6.55;1.40;;;;;;;;;;5069860;28;20091;-66
2023/05/23 09:01:19;;;;;;;13.52;1.63;;;;;;;;;;5060589;28;20052;-66
2023/05/23 09:03:46;;;;;;;6.55;1.45;;;;;;;;;;5062034;28;20056;-66
2023/05/23 09:06:13;;;;;;;6.78;1.58;;;;;;;;;;5068148;28;20036;-67
2023/05/23 09:08:41;;;;;;;8.20;1.42;;;;;;;;;;5067090;28;21285;-66
2023/05/23 09:11:11;;;;;;;6.18;1.30;;;;;;;;;;5070004;28;20040;-66
2023/05/23 09:13:40;;;;;;;7.20;1.63;;;;;;;;;;5068701;28;20080;-66
2023/05/23 09:16:10;;;;;;;5.00;1.20;;;;;;;;;;5063596;28;20094;-66
2023/05/23 09:18:38;;;;;;;7.80;1.50;;;;;;;;;;5061031;28;20065;-66
2023/05/23 09:21:06;;;;;;;8.88;1.40;;;;;;;;;;5067180;28;20080;-66
2023/05/23 09:23:33;;;;;;;6.57;1.40;;;;;;;;;;5063352;28;20100;-66
2023/05/23 09:26:04;;;;;;;6.28;1.40;;;;;;;;;;5066844;28;20507;-65
2023/05/23 09:28:31;;;;;;;8.07;1.42;;;;;;;;;;5063541;28;20055;-69
2023/05/23 09:30:59;;;;;;;4.88;1.50;;;;;;;;;;5069318;28;20045;-67
2023/05/23 09:33:34;;;;;;;5.13;1.33;;;;;;;;;;5063406;28;20144;-67
2023/05/23 09:36:01;;;;;;;3.88;1.23;;;;;;;;;;5067420;28;20049;-67
2023/05/23 09:38:29;;;;;;;11.13;2.05;;;;;;;;;;5067029;28;20053;-67
2023/05/23 09:40:56;;;;;;;8.82;1.83;;;;;;;;;;5067946;28;20186;-66
2023/05/23 09:43:24;;;;;;;4.85;1.33;;;;;;;;;;5060495;28;20056;-68
2023/05/23 09:45:51;;;;;;;5.05;1.63;;;;;;;;;;5065176;28;20053;-67
2023/05/23 09:48:18;;;;;;;8.52;1.80;;;;;;;;;;5064662;28;20507;-67
2023/05/23 09:50:50;;;;;;;6.40;1.25;;;;;;;;;;5064791;28;20053;-67
2023/05/23 09:53:20;;;;;;;5.80;1.60;;;;;;;;;;5065627;28;20041;-67
2023/05/23 09:55:48;;;;;;;6.97;1.48;;;;;;;;;;5060987;28;20131;-67
2023/05/23 09:58:16;;;;;;;6.95;1.42;;;;;;;;;;5068778;28;20044;-68
2023/05/23 10:00:44;;;;;;;5.07;1.55;;;;;;;;;;5066536;28;20062;-67
2023/05/23 10:03:12;;;;;;;7.82;1.15;;;;;;;;;;5064527;28;20044;-67
2023/05/23 10:05:42;;;;;;;9.30;1.70;;;;;;;;;;5067732;28;20514;-67
2023/05/23 10:08:11;;;;;;;8.70;1.63;;;;;;;;;;5065085;28;20055;-68
2023/05/23 10:11:02;;;;;;;7.75;1.52;;;;;;;;;;5064197;28;20102;-67
2023/05/23 10:13:29;;;;;;;6.65;1.40;;;;;;;;;;5061773;28;20526;-67
2023/05/23 10:16:00;;;;;;;7.85;1.25;;;;;;;;;;5067742;28;20060;-67
2023/05/23 10:18:29;;;;;;;8.57;1.48;;;;;;;;;;5063525;28;20048;-68
2023/05/23 10:21:00;;;;;;;5.82;1.27;;;;;;;;;;5067348;28;20048;-68
2023/05/23 10:23:29;;;;;;;7.82;1.58;;;;;;;;;;5059813;28;20063;-68
2023/05/23 10:25:56;;;;;;;10.48;1.88;;;;;;;;;;5064615;28;20619;-68
2023/05/23 10:28:23;;;;;;;4.18;1.48;;;;;;;;;;5065610;28;20056;-68
2023/05/23 10:30:51;;;;;;;7.50;1.50;;;;;;;;;;5068443;28;20052;-68
2023/05/23 10:33:19;;;;;;;7.63;1.58;;;;;;;;;;5070553;28;20492;-68
2023/05/23 10:35:50;;;;;;;6.78;1.55;;;;;;;;;;5069846;28;20053;-68
2023/05/23 10:38:37;;;;;;;5.03;1.33;;;;;;;;;;5067327;28;20037;-68
2023/05/23 10:41:10;;;;;;;9.20;1.80;;;;;;;;;;5065183;28;20060;-68
2023/05/23 10:43:43;;;;;;;6.68;1.30;;;;;;;;;;5070288;28;20063;-68
2023/05/23 10:46:10;;;;;;;7.63;1.65;;;;;;;;;;5068650;28;20075;-68
2023/05/23 10:48:42;;;;;;;7.82;1.40;;;;;;;;;;5072833;28;20056;-68
2023/05/23 10:51:10;;;;;;;7.00;1.23;;;;;;;;;;5068799;28;21639;-68
2023/05/23 10:53:39;;;;;;;6.07;1.30;;;;;;;;;;5071194;28;20059;-68
2023/05/23 10:56:07;;;;;;;11.18;1.88;;;;;;;;;;5066736;28;20303;-68
2023/05/23 10:58:34;;;;;;;8.80;1.48;;;;;;;;;;5072617;28;20741;-68
2023/05/23 11:01:03;;;;;;;6.15;1.50;;;;;;;;;;5071970;28;20048;-68
2023/05/23 11:03:34;;;;;;;8.23;1.40;;;;;;;;;;5068742;28;20095;-68
2023/05/23 11:06:02;;;;;;;3.92;1.20;;;;;;;;;;5069779;28;20512;-68
2023/05/23 11:08:37;;;;;;;5.80;1.30;;;;;;;;;;5069324;28;20411;-68
2023/05/23 11:11:06;;;;;;;6.90;1.30;;;;;;;;;;5060290;28;20095;-69
2023/05/23 11:14:04;;;;;;;4.72;1.38;;;;;;;;;;5066631;28;20056;-69
2023/05/23 11:16:32;;;;;;;5.93;1.50;;;;;;;;;;4987283;28;20050;-66
2023/05/23 11:19:18;;;;;;;6.05;1.50;;;;;;;;;;5051547;28;20051;-66
2023/05/23 11:21:45;;;;;;;6.25;1.35;;;;;;;;;;5067368;28;20053;-66
2023/05/23 11:24:12;;;;;;;5.75;1.60;;;;;;;;;;5065416;28;20052;-67
2023/05/23 11:26:41;;;;;;;5.70;1.48;;;;;;;;;;5063816;28;20071;-67
2023/05/23 11:29:09;;;;;;;4.78;1.40;;;;;;;;;;5070788;28;20114;-67
2023/05/23 11:31:39;;;;;;;7.82;1.60;;;;;;;;;;5070623;28;20053;-67
2023/05/23 11:34:07;;;;;;;5.13;1.25;;;;;;;;;;5071747;28;20060;-67
2023/05/23 11:36:35;;;;;;;6.55;1.48;;;;;;;;;;5068944;28;20064;-67
2023/05/23 11:39:03;;;;;;;5.68;1.30;;;;;;;;;;5069596;28;20052;-68
2023/05/23 11:41:32;;;;;;;6.75;1.40;;;;;;;;;;5069130;28;20129;-67
2023/05/23 11:44:01;;;;;;;6.05;1.40;;;;;;;;;;5070347;28;20052;-67
2023/05/23 11:46:28;;;;;;;5.32;1.45;;;;;;;;;;5067512;28;20538;-68
2023/05/23 11:48:55;;;;;;;9.50;1.38;;;;;;;;;;5069676;28;20048;-67
2023/05/23 11:51:23;;;;;;;5.35;1.50;;;;;;;;;;5069081;28;20574;-67
2023/05/23 11:53:50;;;;;;;6.88;1.33;;;;;;;;;;5069753;28;20055;-68
2023/05/23 11:56:17;;;;;;;8.75;1.45;;;;;;;;;;5069651;28;20044;-68
2023/05/23 11:58:45;;;;;;;6.10;1.48;;;;;;;;;;5070328;28;20044;-68
2023/05/23 12:01:13;;;;;;;5.55;1.48;;;;;;;;;;5072939;28;20044;-67
2023/05/23 12:03:46;;;;;;;4.32;1.30;;;;;;;;;;5067809;28;20059;-67
2023/05/23 12:06:16;;;;;;;6.05;1.45;;;;;;;;;;5066891;28;20044;-67
2023/05/23 12:08:43;;;;;;;5.43;1.17;;;;;;;;;;5068010;28;20453;-67
2023/05/23 12:11:10;;;;;;;9.02;1.63;;;;;;;;;;5064984;28;20044;-68
2023/05/23 12:13:38;;;;;;;7.57;1.83;;;;;;;;;;5067032;28;20399;-68
2023/05/23 12:16:05;;;;;;;6.15;1.77;;;;;;;;;;5066986;28;20051;-68
2023/05/23 12:18:34;;;;;;;7.70;1.70;;;;;;;;;;5067341;28;20048;-68
2023/05/23 12:21:04;;;;;;;6.53;1.17;;;;;;;;;;5067245;28;20059;-67
2023/05/23 12:23:32;;;;;;;8.82;1.60;;;;;;;;;;5069991;28;20075;-67
2023/05/23 12:26:00;;;;;;;7.55;1.30;;;;;;;;;;5068644;28;20084;-68
2023/05/23 12:28:35;;;;;;;4.15;1.08;;;;;;;;;;5068923;28;20056;-68
2023/05/23 12:31:09;;;;;;;4.55;1.45;;;;;;;;;;5070045;28;20075;-68
2023/05/23 12:33:42;;;;;;;4.07;1.40;;;;;;;;;;5068744;28;20048;-68
2023/05/23 12:36:10;;;;;;;5.00;1.40;;;;;;;;;;5061486;28;22184;-68
2023/05/23 12:38:39;;;;;;;6.68;1.60;;;;;;;;;;5067537;28;20472;-68
2023/05/23 12:41:10;;;;;;;6.15;1.42;;;;;;;;;;5067209;28;20080;-67
2023/05/23 12:43:41;;;;;;;5.80;1.30;;;;;;;;;;5067253;28;20143;-68
2023/05/23 12:46:09;;;;;;;6.75;1.30;;;;;;;;;;5064879;28;20056;-68
2023/05/23 12:48:36;;;;;;;6.18;1.52;;;;;;;;;;5066142;28;20052;-68
2023/05/23 12:51:05;;;;;;;4.82;1.50;;;;;;;;;;5067360;28;20160;-68
2023/05/23 12:53:32;;;;;;;5.25;1.40;;;;;;;;;;5068422;28;20044;-68
2023/05/23 12:56:00;;;;;;;6.38;1.48;;;;;;;;;;5065730;28;20044;-68
2023/05/23 12:58:28;;;;;;;4.57;1.45;;;;;;;;;;5068847;28;20040;-68
2023/05/23 13:00:56;;;;;;;4.93;1.60;;;;;;;;;;5068407;28;20049;-68
2023/05/23 13:03:23;;;;;;;6.03;1.48;;;;;;;;;;5062308;28;20063;-68
2023/05/23 13:05:51;;;;;;;6.53;1.88;;;;;;;;;;5063446;28;20041;-68
2023/05/23 13:08:20;;;;;;;4.90;1.40;;;;;;;;;;5061259;28;20063;-68
2023/05/23 13:10:48;;;;;;;5.60;1.10;;;;;;;;;;5058948;28;20044;-68
2023/05/23 13:13:15;;;;;;;5.65;1.38;;;;;;;;;;5064045;28;20067;-67
2023/05/23 13:15:42;;;;;;;6.53;2.03;;;;;;;;;;5063968;28;20052;-68
2023/05/23 13:18:10;;;;;;;6.75;1.98;;;;;;;;;;5068450;28;20094;-68
2023/05/23 13:20:37;;;;;;;7.13;1.52;;;;;;;;;;5067255;28;20054;-68
2023/05/23 13:23:05;;;;;;;9.73;1.50;;;;;;;;;;5067236;28;20059;-68
2023/05/23 13:25:34;;;;;;;6.63;1.33;;;;;;;;;;5060741;28;20101;-67
2023/05/23 13:28:01;;;;;;;8.63;1.40;;;;;;;;;;5068023;28;20211;-68
2023/05/23 13:30:29;;;;;;;5.10;1.40;;;;;;;;;;5065797;28;20133;-68
2023/05/23 13:32:56;;;;;;;5.07;1.17;;;;;;;;;;5066024;28;20079;-68
2023/05/23 13:35:23;;;;;;;10.27;1.65;;;;;;;;;;5068032;28;20048;-68
2023/05/23 13:37:51;;;;;;;5.75;1.13;;;;;;;;;;5062442;28;20951;-69
2023/05/23 13:40:19;;;;;;;5.82;1.40;;;;;;;;;;5061793;28;20050;-68
2023/05/23 13:42:49;;;;;;;7.38;1.50;;;;;;;;;;5065517;28;20055;-68
2023/05/23 13:45:17;;;;;;;5.10;1.40;;;;;;;;;;5067310;28;20052;-68
2023/05/23 13:47:45;;;;;;;4.40;1.60;;;;;;;;;;5065639;28;20053;-68
2023/05/23 13:50:12;;;;;;;6.72;1.60;;;;;;;;;;5067499;28;20056;-67
2023/05/23 13:52:40;;;;;;;4.40;1.70;;;;;;;;;;5068171;28;20060;-68
2023/05/23 13:55:09;;;;;;;4.47;1.52;;;;;;;;;;5066955;28;20680;-66
2023/05/23 13:57:36;;;;;;;4.25;1.33;;;;;;;;;;5066033;28;20460;-65
2023/05/23 14:00:08;;;;;;;4.57;1.30;;;;;;;;;;5069463;28;20060;-65
2023/05/23 14:02:37;;;;;;;3.13;1.23;;;;;;;;;;5064760;28;20450;-66
2023/05/23 14:05:06;;;;;;;7.28;1.90;;;;;;;;;;5066806;28;20105;-65
2023/05/23 14:07:33;;;;;;;6.13;1.50;;;;;;;;;;5067661;28;20048;-66
2023/05/23 14:10:01;;;;;;;5.03;1.40;;;;;;;;;;5067560;28;20071;-65
2023/05/23 14:12:28;;;;;;;4.82;0.95;;;;;;;;;;5066552;28;20056;-65
2023/05/23 14:14:55;;;;;;;4.03;1.30;;;;;;;;;;5067870;28;20434;-66
2023/05/23 14:17:24;;;;;;;4.97;1.42;;;;;;;;;;5062698;28;20041;-65
2023/05/23 14:19:52;;;;;;;6.93;1.65;;;;;;;;;;5064455;28;20048;-65
2023/05/23 14:22:19;;;;;;;6.05;1.30;;;;;;;;;;5064986;28;20419;-65
2023/05/23 14:24:47;;;;;;;4.57;1.40;;;;;;;;;;5063824;28;20381;-65
2023/05/23 14:27:14;;;;;;;6.57;1.42;;;;;;;;;;5064803;28;20044;-65
2023/05/23 14:29:45;;;;;;;4.13;1.40;;;;;;;;;;5067876;28;20053;-65
2023/05/23 14:32:12;;;;;;;6.93;1.60;;;;;;;;;;5064663;28;20044;-65
2023/05/23 14:34:41;;;;;;;4.40;1.52;;;;;;;;;;5065320;28;20147;-64
2023/05/23 14:37:09;;;;;;;4.10;1.30;;;;;;;;;;5068485;28;20056;-65
2023/05/23 14:39:36;;;;;;;4.38;1.42;;;;;;;;;;5066056;28;20049;-68
2023/05/23 14:42:04;;;;;;;6.82;1.30;;;;;;;;;;5064940;28;20048;-66
2023/05/23 14:44:31;;;;;;;5.72;1.27;;;;;;;;;;5063855;28;20056;-66
2023/05/23 14:46:59;;;;;;;3.20;1.20;;;;;;;;;;5066707;28;20088;-66